sensor_id;sensor_type;location;lat;lon;timestamp;pressure;altitude;pressure_sealevel;temperature;humidity
59545;BME280;45368;55.002;-1.592;2023-04-02T00:01:44;101457.92;;;6.50;62.82
59545;BME280;45368;55.002;-1.592;2023-04-02T00:04:15;101459.86;;;7.19;61.60
59545;BME280;45368;55.002;-1.592;2023-04-02T00:06:42;101454.71;;;7.35;60.57
59545;BME280;45368;55.002;-1.592;2023-04-02T00:09:42;101457.38;;;7.49;60.38
59545;BME280;45368;55.002;-1.592;2023-04-02T00:12:15;101461.74;;;8.73;58.23
59545;BME280;45368;55.002;-1.592;2023-04-02T00:14:47;101463.77;;;8.74;57.73
59545;BME280;45368;55.002;-1.592;2023-04-02T00:17:16;101467.73;;;8.35;57.77
59545;BME280;45368;55.002;-1.592;2023-04-02T00:19:47;101469.11;;;7.82;59.40
59545;BME280;45368;55.002;-1.592;2023-04-02T00:22:18;101471.35;;;7.09;59.91
59545;BME280;45368;55.002;-1.592;2023-04-02T00:24:49;101471.27;;;7.77;59.23
59545;BME280;45368;55.002;-1.592;2023-04-02T00:27:17;101474.57;;;8.22;58.03
59545;BME280;45368;55.002;-1.592;2023-04-02T00:29:47;101474.94;;;8.73;57.00
59545;BME280;45368;55.002;-1.592;2023-04-02T00:32:25;101477.76;;;8.71;56.98
59545;BME280;45368;55.002;-1.592;2023-04-02T00:34:54;101483.01;;;7.61;58.88
59545;BME280;45368;55.002;-1.592;2023-04-02T00:37:24;101487.32;;;7.43;59.74
59545;BME280;45368;55.002;-1.592;2023-04-02T00:39:57;101489.12;;;7.46;58.69
59545;BME280;45368;55.002;-1.592;2023-04-02T00:42:29;101501.96;;;7.31;58.93
59545;BME280;45368;55.002;-1.592;2023-04-02T00:44:57;101501.93;;;7.89;58.12
59545;BME280;45368;55.002;-1.592;2023-04-02T00:47:26;101508.19;;;7.87;57.51
59545;BME280;45368;55.002;-1.592;2023-04-02T00:50:00;101512.88;;;8.27;56.97
59545;BME280;45368;55.002;-1.592;2023-04-02T00:52:30;101514.90;;;7.44;58.04
59545;BME280;45368;55.002;-1.592;2023-04-02T00:55:03;101515.52;;;8.17;57.42
59545;BME280;45368;55.002;-1.592;2023-04-02T00:57:33;101520.72;;;8.36;56.28
59545;BME280;45368;55.002;-1.592;2023-04-02T01:00:09;101524.80;;;8.16;56.75
59545;BME280;45368;55.002;-1.592;2023-04-02T01:02:41;101530.97;;;8.27;56.15
59545;BME280;45368;55.002;-1.592;2023-04-02T01:05:21;101532.56;;;8.21;56.07
59545;BME280;45368;55.002;-1.592;2023-04-02T01:07:59;101534.79;;;8.57;55.06
59545;BME280;45368;55.002;-1.592;2023-04-02T01:10:45;101539.13;;;8.84;54.90
59545;BME280;45368;55.002;-1.592;2023-04-02T01:13:22;101545.36;;;8.94;54.68
59545;BME280;45368;55.002;-1.592;2023-04-02T01:15:56;101546.04;;;8.81;54.61
59545;BME280;45368;55.002;-1.592;2023-04-02T01:18:36;101549.74;;;9.49;53.85
59545;BME280;45368;55.002;-1.592;2023-04-02T01:21:16;101555.13;;;9.09;53.77
59545;BME280;45368;55.002;-1.592;2023-04-02T01:23:55;101562.33;;;8.31;54.37
59545;BME280;45368;55.002;-1.592;2023-04-02T01:26:38;101564.05;;;7.83;56.14
59545;BME280;45368;55.002;-1.592;2023-04-02T01:29:10;101568.21;;;7.59;56.14
59545;BME280;45368;55.002;-1.592;2023-04-02T01:31:39;101566.92;;;7.67;55.67
59545;BME280;45368;55.002;-1.592;2023-04-02T01:34:10;101569.40;;;7.36;56.59
59545;BME280;45368;55.002;-1.592;2023-04-02T01:36:44;101571.37;;;7.53;55.76
59545;BME280;45368;55.002;-1.592;2023-04-02T01:39:24;101571.80;;;8.14;56.06
59545;BME280;45368;55.002;-1.592;2023-04-02T01:42:00;101572.50;;;8.70;54.18
59545;BME280;45368;55.002;-1.592;2023-04-02T01:44:36;101575.76;;;8.84;53.59
59545;BME280;45368;55.002;-1.592;2023-04-02T01:47:10;101573.72;;;9.15;52.65
59545;BME280;45368;55.002;-1.592;2023-04-02T01:49:40;101579.39;;;8.45;53.96
59545;BME280;45368;55.002;-1.592;2023-04-02T01:52:08;101589.94;;;7.55;55.87
59545;BME280;45368;55.002;-1.592;2023-04-02T01:54:38;101591.18;;;7.79;55.07
59545;BME280;45368;55.002;-1.592;2023-04-02T01:57:07;101593.09;;;8.11;54.86
59545;BME280;45368;55.002;-1.592;2023-04-02T01:59:34;101605.48;;;6.80;57.60
59545;BME280;45368;55.002;-1.592;2023-04-02T02:02:03;101602.60;;;8.47;53.85
59545;BME280;45368;55.002;-1.592;2023-04-02T02:04:32;101611.41;;;7.91;54.83
59545;BME280;45368;55.002;-1.592;2023-04-02T02:07:00;101607.09;;;8.72;53.56
59545;BME280;45368;55.002;-1.592;2023-04-02T02:09:31;101615.40;;;7.82;53.75
59545;BME280;45368;55.002;-1.592;2023-04-02T02:11:59;101621.06;;;7.63;55.24
59545;BME280;45368;55.002;-1.592;2023-04-02T02:14:28;101621.65;;;8.09;53.93
59545;BME280;45368;55.002;-1.592;2023-04-02T02:16:58;101623.79;;;7.80;54.16
59545;BME280;45368;55.002;-1.592;2023-04-02T02:19:30;101627.42;;;7.96;54.35
59545;BME280;45368;55.002;-1.592;2023-04-02T02:22:08;101633.27;;;8.34;53.28
59545;BME280;45368;55.002;-1.592;2023-04-02T02:24:38;101635.46;;;8.03;53.15
59545;BME280;45368;55.002;-1.592;2023-04-02T02:27:30;101641.66;;;8.07;53.54
59545;BME280;45368;55.002;-1.592;2023-04-02T02:30:11;101639.57;;;9.12;51.62
59545;BME280;45368;55.002;-1.592;2023-04-02T02:32:46;101647.18;;;7.32;53.92
59545;BME280;45368;55.002;-1.592;2023-04-02T02:35:20;101647.20;;;7.83;53.48
59545;BME280;45368;55.002;-1.592;2023-04-02T02:37:53;101661.73;;;6.41;56.36
59545;BME280;45368;55.002;-1.592;2023-04-02T02:40:26;101670.47;;;6.44;56.63
59545;BME280;45368;55.002;-1.592;2023-04-02T02:43:01;101675.10;;;6.89;56.27
59545;BME280;45368;55.002;-1.592;2023-04-02T02:45:35;101669.14;;;7.28;55.22
59545;BME280;45368;55.002;-1.592;2023-04-02T02:48:07;101673.39;;;7.28;55.27
59545;BME280;45368;55.002;-1.592;2023-04-02T02:50:38;101674.33;;;7.20;56.03
59545;BME280;45368;55.002;-1.592;2023-04-02T02:53:15;101675.09;;;6.24;56.39
59545;BME280;45368;55.002;-1.592;2023-04-02T02:55:42;101672.82;;;7.94;53.57
59545;BME280;45368;55.002;-1.592;2023-04-02T02:58:15;101678.40;;;7.65;53.53
59545;BME280;45368;55.002;-1.592;2023-04-02T03:00:43;101685.54;;;7.81;53.70
59545;BME280;45368;55.002;-1.592;2023-04-02T03:03:15;101692.05;;;7.42;54.23
59545;BME280;45368;55.002;-1.592;2023-04-02T03:05:49;101692.97;;;8.37;52.54
59545;BME280;45368;55.002;-1.592;2023-04-02T03:08:21;101697.71;;;8.76;51.46
59545;BME280;45368;55.002;-1.592;2023-04-02T03:10:57;101701.35;;;8.38;51.54
59545;BME280;45368;55.002;-1.592;2023-04-02T03:13:30;101704.75;;;7.95;52.19
59545;BME280;45368;55.002;-1.592;2023-04-02T03:16:02;101709.95;;;8.74;51.10
59545;BME280;45368;55.002;-1.592;2023-04-02T03:18:40;101713.87;;;8.89;50.80
59545;BME280;45368;55.002;-1.592;2023-04-02T03:21:17;101720.48;;;8.57;51.11
59545;BME280;45368;55.002;-1.592;2023-04-02T03:23:52;101722.52;;;8.00;51.25
59545;BME280;45368;55.002;-1.592;2023-04-02T03:26:26;101729.66;;;8.85;50.63
59545;BME280;45368;55.002;-1.592;2023-04-02T03:29:00;101738.60;;;8.72;50.83
59545;BME280;45368;55.002;-1.592;2023-04-02T03:32:36;101746.14;;;9.10;49.76
59545;BME280;45368;55.002;-1.592;2023-04-02T03:35:17;101747.90;;;9.23;49.74
59545;BME280;45368;55.002;-1.592;2023-04-02T03:38:55;101750.29;;;8.79;49.47
59545;BME280;45368;55.002;-1.592;2023-04-02T03:41:32;101751.48;;;9.46;48.06
59545;BME280;45368;55.002;-1.592;2023-04-02T03:44:06;101755.81;;;8.28;49.13
59545;BME280;45368;55.002;-1.592;2023-04-02T03:46:43;101760.09;;;8.96;48.43
59545;BME280;45368;55.002;-1.592;2023-04-02T03:49:17;101763.39;;;8.94;48.87
59545;BME280;45368;55.002;-1.592;2023-04-02T03:51:52;101766.53;;;9.01;48.61
59545;BME280;45368;55.002;-1.592;2023-04-02T03:54:28;101768.73;;;8.55;49.05
59545;BME280;45368;55.002;-1.592;2023-04-02T03:56:55;101771.77;;;8.69;48.32
59545;BME280;45368;55.002;-1.592;2023-04-02T03:59:30;101774.10;;;8.25;48.82
59545;BME280;45368;55.002;-1.592;2023-04-02T04:02:08;101776.14;;;8.73;48.47
59545;BME280;45368;55.002;-1.592;2023-04-02T04:04:40;101775.84;;;8.94;48.26
59545;BME280;45368;55.002;-1.592;2023-04-02T04:07:15;101773.65;;;9.32;47.41
59545;BME280;45368;55.002;-1.592;2023-04-02T04:09:46;101782.36;;;8.95;47.44
59545;BME280;45368;55.002;-1.592;2023-04-02T04:12:25;101784.65;;;8.82;47.60
59545;BME280;45368;55.002;-1.592;2023-04-02T04:14:58;101789.42;;;8.57;47.28
59545;BME280;45368;55.002;-1.592;2023-04-02T04:17:32;101792.08;;;9.37;46.77
59545;BME280;45368;55.002;-1.592;2023-04-02T04:20:08;101792.78;;;9.17;46.86
59545;BME280;45368;55.002;-1.592;2023-04-02T04:22:40;101791.76;;;9.71;46.06
59545;BME280;45368;55.002;-1.592;2023-04-02T04:25:19;101790.67;;;9.83;45.41
59545;BME280;45368;55.002;-1.592;2023-04-02T04:27:55;101793.95;;;9.51;45.71
59545;BME280;45368;55.002;-1.592;2023-04-02T04:30:27;101797.95;;;9.57;45.64
59545;BME280;45368;55.002;-1.592;2023-04-02T04:32:58;101805.08;;;9.21;46.69
59545;BME280;45368;55.002;-1.592;2023-04-02T04:35:31;101803.59;;;9.38;46.09
59545;BME280;45368;55.002;-1.592;2023-04-02T04:38:03;101807.01;;;8.65;47.05
59545;BME280;45368;55.002;-1.592;2023-04-02T04:40:33;101804.64;;;9.31;45.81
59545;BME280;45368;55.002;-1.592;2023-04-02T04:43:04;101811.18;;;7.36;48.22
59545;BME280;45368;55.002;-1.592;2023-04-02T04:45:39;101808.81;;;8.53;47.31
59545;BME280;45368;55.002;-1.592;2023-04-02T04:48:09;101804.02;;;8.75;47.19
59545;BME280;45368;55.002;-1.592;2023-04-02T04:50:47;101806.04;;;8.74;47.03
59545;BME280;45368;55.002;-1.592;2023-04-02T04:53:18;101805.15;;;9.69;45.84
59545;BME280;45368;55.002;-1.592;2023-04-02T04:55:47;101813.47;;;8.35;46.82
59545;BME280;45368;55.002;-1.592;2023-04-02T04:58:21;101812.61;;;9.51;45.83
59545;BME280;45368;55.002;-1.592;2023-04-02T05:00:56;101818.59;;;8.56;46.00
59545;BME280;45368;55.002;-1.592;2023-04-02T05:03:31;101825.86;;;8.70;46.51
59545;BME280;45368;55.002;-1.592;2023-04-02T05:06:07;101828.28;;;9.30;44.83
59545;BME280;45368;55.002;-1.592;2023-04-02T05:08:38;101834.49;;;9.36;45.03
59545;BME280;45368;55.002;-1.592;2023-04-02T05:11:12;101840.32;;;8.65;45.94
59545;BME280;45368;55.002;-1.592;2023-04-02T05:13:46;101840.24;;;9.70;45.33
59545;BME280;45368;55.002;-1.592;2023-04-02T05:16:20;101837.89;;;9.94;44.48
59545;BME280;45368;55.002;-1.592;2023-04-02T05:18:52;101842.36;;;9.33;45.34
59545;BME280;45368;55.002;-1.592;2023-04-02T05:21:26;101839.11;;;9.43;44.74
59545;BME280;45368;55.002;-1.592;2023-04-02T05:23:59;101842.56;;;8.97;45.74
59545;BME280;45368;55.002;-1.592;2023-04-02T05:26:32;101846.60;;;9.41;44.98
59545;BME280;45368;55.002;-1.592;2023-04-02T05:29:08;101847.28;;;9.53;44.64
59545;BME280;45368;55.002;-1.592;2023-04-02T05:31:41;101852.58;;;9.11;45.93
59545;BME280;45368;55.002;-1.592;2023-04-02T05:34:10;101853.14;;;9.17;45.73
59545;BME280;45368;55.002;-1.592;2023-04-02T05:36:38;101857.69;;;8.92;45.54
59545;BME280;45368;55.002;-1.592;2023-04-02T05:39:08;101864.41;;;8.99;45.58
59545;BME280;45368;55.002;-1.592;2023-04-02T05:41:39;101871.89;;;8.63;45.40
59545;BME280;45368;55.002;-1.592;2023-04-02T05:44:15;101876.80;;;9.77;44.73
59545;BME280;45368;55.002;-1.592;2023-04-02T05:46:48;101876.15;;;9.87;43.67
59545;BME280;45368;55.002;-1.592;2023-04-02T05:49:22;101886.94;;;9.71;44.15
59545;BME280;45368;55.002;-1.592;2023-04-02T05:51:54;101893.70;;;8.77;45.14
59545;BME280;45368;55.002;-1.592;2023-04-02T05:54:26;101896.58;;;9.67;44.22
59545;BME280;45368;55.002;-1.592;2023-04-02T05:57:00;101896.49;;;9.39;44.32
59545;BME280;45368;55.002;-1.592;2023-04-02T05:59:33;101898.04;;;8.78;44.91
59545;BME280;45368;55.002;-1.592;2023-04-02T06:02:10;101900.83;;;9.24;44.34
59545;BME280;45368;55.002;-1.592;2023-04-02T06:04:47;101907.97;;;9.66;44.39
59545;BME280;45368;55.002;-1.592;2023-04-02T06:07:20;101915.61;;;9.24;45.11
59545;BME280;45368;55.002;-1.592;2023-04-02T06:09:52;101918.68;;;9.19;44.14
59545;BME280;45368;55.002;-1.592;2023-04-02T06:12:27;101921.56;;;9.16;44.56
59545;BME280;45368;55.002;-1.592;2023-04-02T06:14:56;101925.50;;;8.54;45.64
59545;BME280;45368;55.002;-1.592;2023-04-02T06:17:24;101922.20;;;9.64;44.40
59545;BME280;45368;55.002;-1.592;2023-04-02T06:19:52;101926.81;;;8.18;46.53
59545;BME280;45368;55.002;-1.592;2023-04-02T06:22:25;101937.93;;;8.24;46.32
59545;BME280;45368;55.002;-1.592;2023-04-02T06:25:01;101936.04;;;9.16;44.86
59545;BME280;45368;55.002;-1.592;2023-04-02T06:27:32;101942.32;;;9.39;44.72
59545;BME280;45368;55.002;-1.592;2023-04-02T06:30:02;101945.66;;;8.57;46.06
59545;BME280;45368;55.002;-1.592;2023-04-02T06:32:32;101945.31;;;9.13;45.28
59545;BME280;45368;55.002;-1.592;2023-04-02T06:35:00;101946.88;;;8.96;45.14
59545;BME280;45368;55.002;-1.592;2023-04-02T06:37:30;101949.41;;;8.97;45.66
59545;BME280;45368;55.002;-1.592;2023-04-02T06:39:58;101954.13;;;8.67;45.75
59545;BME280;45368;55.002;-1.592;2023-04-02T06:42:29;101963.56;;;8.33;46.33
59545;BME280;45368;55.002;-1.592;2023-04-02T06:44:57;101970.28;;;5.82;51.03
59545;BME280;45368;55.002;-1.592;2023-04-02T06:47:29;101974.94;;;6.90;49.65
59545;BME280;45368;55.002;-1.592;2023-04-02T06:50:04;101975.86;;;7.90;47.93
59545;BME280;45368;55.002;-1.592;2023-04-02T06:52:36;101970.30;;;9.00;46.01
59545;BME280;45368;55.002;-1.592;2023-04-02T06:55:25;101979.08;;;8.26;46.98
59545;BME280;45368;55.002;-1.592;2023-04-02T06:57:53;101983.15;;;6.79;49.00
59545;BME280;45368;55.002;-1.592;2023-04-02T07:00:25;101988.62;;;7.11;48.94
59545;BME280;45368;55.002;-1.592;2023-04-02T07:02:55;101993.96;;;7.35;49.58
59545;BME280;45368;55.002;-1.592;2023-04-02T07:05:23;101996.67;;;7.74;47.76
59545;BME280;45368;55.002;-1.592;2023-04-02T07:07:55;101998.77;;;7.56;48.17
59545;BME280;45368;55.002;-1.592;2023-04-02T07:10:23;102000.47;;;7.55;48.18
59545;BME280;45368;55.002;-1.592;2023-04-02T07:12:51;102014.21;;;5.69;51.76
59545;BME280;45368;55.002;-1.592;2023-04-02T07:15:18;102010.04;;;7.21;49.22
59545;BME280;45368;55.002;-1.592;2023-04-02T07:17:45;102010.57;;;7.25;48.94
59545;BME280;45368;55.002;-1.592;2023-04-02T07:20:24;102013.23;;;7.13;50.04
59545;BME280;45368;55.002;-1.592;2023-04-02T07:22:52;102024.25;;;5.73;51.86
59545;BME280;45368;55.002;-1.592;2023-04-02T07:25:19;102017.86;;;6.43;50.41
59545;BME280;45368;55.002;-1.592;2023-04-02T07:27:47;102019.54;;;6.40;50.48
59545;BME280;45368;55.002;-1.592;2023-04-02T07:30:14;102017.42;;;5.70;50.31
59545;BME280;45368;55.002;-1.592;2023-04-02T07:32:41;102020.61;;;5.68;51.83
59545;BME280;45368;55.002;-1.592;2023-04-02T07:35:09;102014.53;;;6.68;51.07
59545;BME280;45368;55.002;-1.592;2023-04-02T07:37:37;102017.81;;;6.68;49.23
59545;BME280;45368;55.002;-1.592;2023-04-02T07:40:05;102023.41;;;6.55;49.42
59545;BME280;45368;55.002;-1.592;2023-04-02T07:42:32;102030.12;;;5.60;50.21
59545;BME280;45368;55.002;-1.592;2023-04-02T07:44:59;102024.46;;;6.80;49.21
59545;BME280;45368;55.002;-1.592;2023-04-02T07:47:26;102029.36;;;6.85;49.24
59545;BME280;45368;55.002;-1.592;2023-04-02T07:49:53;102036.57;;;7.26;48.32
59545;BME280;45368;55.002;-1.592;2023-04-02T07:52:20;102039.14;;;7.48;47.81
59545;BME280;45368;55.002;-1.592;2023-04-02T07:54:47;102041.04;;;7.10;48.80
59545;BME280;45368;55.002;-1.592;2023-04-02T07:57:14;102047.17;;;6.38;50.81
59545;BME280;45368;55.002;-1.592;2023-04-02T07:59:41;102050.46;;;6.66;50.32
59545;BME280;45368;55.002;-1.592;2023-04-02T08:02:17;102053.19;;;7.33;49.61
59545;BME280;45368;55.002;-1.592;2023-04-02T08:04:45;102052.73;;;7.33;48.34
59545;BME280;45368;55.002;-1.592;2023-04-02T08:07:13;102052.01;;;7.75;47.11
59545;BME280;45368;55.002;-1.592;2023-04-02T08:09:40;102062.25;;;7.47;47.14
59545;BME280;45368;55.002;-1.592;2023-04-02T08:12:08;102064.17;;;8.38;45.40
59545;BME280;45368;55.002;-1.592;2023-04-02T08:14:38;102066.74;;;8.45;44.45
59545;BME280;45368;55.002;-1.592;2023-04-02T08:17:06;102066.32;;;8.87;43.33
59545;BME280;45368;55.002;-1.592;2023-04-02T08:19:33;102071.29;;;7.55;44.65
59545;BME280;45368;55.002;-1.592;2023-04-02T08:22:00;102071.31;;;7.22;45.11
59545;BME280;45368;55.002;-1.592;2023-04-02T08:24:27;102072.40;;;8.65;44.56
59545;BME280;45368;55.002;-1.592;2023-04-02T08:26:54;102074.93;;;8.74;43.74
59545;BME280;45368;55.002;-1.592;2023-04-02T08:29:21;102080.78;;;7.87;46.26
59545;BME280;45368;55.002;-1.592;2023-04-02T08:31:48;102080.46;;;7.98;45.57
59545;BME280;45368;55.002;-1.592;2023-04-02T08:34:15;102087.96;;;6.94;48.02
59545;BME280;45368;55.002;-1.592;2023-04-02T08:36:43;102090.14;;;7.89;47.24
59545;BME280;45368;55.002;-1.592;2023-04-02T08:40:50;102099.75;;;7.72;47.07
59545;BME280;45368;55.002;-1.592;2023-04-02T08:43:32;102104.93;;;6.43;48.19
59545;BME280;45368;55.002;-1.592;2023-04-02T08:46:13;102101.90;;;7.49;46.84
59545;BME280;45368;55.002;-1.592;2023-04-02T08:48:56;102101.48;;;7.84;45.88
59545;BME280;45368;55.002;-1.592;2023-04-02T08:51:59;102105.95;;;7.22;47.48
59545;BME280;45368;55.002;-1.592;2023-04-02T08:54:29;102113.17;;;6.52;47.36
59545;BME280;45368;55.002;-1.592;2023-04-02T08:57:00;102116.24;;;6.57;46.68
59545;BME280;45368;55.002;-1.592;2023-04-02T09:03:59;102123.86;;;7.11;47.54
59545;BME280;45368;55.002;-1.592;2023-04-02T09:06:32;102124.10;;;8.24;46.38
59545;BME280;45368;55.002;-1.592;2023-04-02T09:18:05;102133.58;;;7.09;46.79
59545;BME280;45368;55.002;-1.592;2023-04-02T09:20:38;102137.66;;;7.90;45.72
59545;BME280;45368;55.002;-1.592;2023-04-02T09:23:08;102143.08;;;7.12;45.18
59545;BME280;45368;55.002;-1.592;2023-04-02T09:25:43;102144.81;;;8.41;44.47
59545;BME280;45368;55.002;-1.592;2023-04-02T09:28:11;102138.97;;;9.52;43.26
59545;BME280;45368;55.002;-1.592;2023-04-02T09:30:53;102144.58;;;8.61;44.91
59545;BME280;45368;55.002;-1.592;2023-04-02T09:33:40;102155.72;;;6.95;45.48
59545;BME280;45368;55.002;-1.592;2023-04-02T09:36:18;102155.92;;;7.57;43.74
59545;BME280;45368;55.002;-1.592;2023-04-02T09:39:02;102162.29;;;7.50;44.81
59545;BME280;45368;55.002;-1.592;2023-04-02T09:41:31;102165.25;;;8.07;45.31
59545;BME280;45368;55.002;-1.592;2023-04-02T09:44:32;102165.84;;;8.18;44.76
59545;BME280;45368;55.002;-1.592;2023-04-02T09:47:09;102173.53;;;8.08;44.66
59545;BME280;45368;55.002;-1.592;2023-04-02T09:49:50;102184.11;;;7.59;45.50
59545;BME280;45368;55.002;-1.592;2023-04-02T09:52:21;102187.62;;;7.51;46.62
59545;BME280;45368;55.002;-1.592;2023-04-02T09:55:20;102186.32;;;7.76;45.53
59545;BME280;45368;55.002;-1.592;2023-04-02T09:57:49;102189.95;;;8.08;44.69
59545;BME280;45368;55.002;-1.592;2023-04-02T10:00:20;102197.94;;;8.22;45.17
59545;BME280;45368;55.002;-1.592;2023-04-02T10:03:01;102201.67;;;8.60;44.41
59545;BME280;45368;55.002;-1.592;2023-04-02T10:05:29;102207.81;;;8.70;44.86
59545;BME280;45368;55.002;-1.592;2023-04-02T10:08:07;102208.54;;;7.70;44.45
59545;BME280;45368;55.002;-1.592;2023-04-02T10:10:39;102207.62;;;9.35;42.53
59545;BME280;45368;55.002;-1.592;2023-04-02T10:13:17;102210.63;;;9.04;42.59
59545;BME280;45368;55.002;-1.592;2023-04-02T10:15:52;102213.90;;;8.50;44.19
59545;BME280;45368;55.002;-1.592;2023-04-02T10:18:29;102212.55;;;8.76;43.70
59545;BME280;45368;55.002;-1.592;2023-04-02T10:21:01;102221.13;;;7.49;44.95
59545;BME280;45368;55.002;-1.592;2023-04-02T10:23:30;102217.64;;;8.32;44.62
59545;BME280;45368;55.002;-1.592;2023-04-02T10:26:08;102220.24;;;8.34;43.58
59545;BME280;45368;55.002;-1.592;2023-04-02T10:28:51;102222.31;;;7.77;42.58
59545;BME280;45368;55.002;-1.592;2023-04-02T10:31:24;102227.78;;;8.01;44.31
59545;BME280;45368;55.002;-1.592;2023-04-02T10:33:59;102227.47;;;8.79;42.89
59545;BME280;45368;55.002;-1.592;2023-04-02T10:36:39;102232.75;;;8.35;43.17
59545;BME280;45368;55.002;-1.592;2023-04-02T10:39:15;102231.03;;;9.13;42.41
59545;BME280;45368;55.002;-1.592;2023-04-02T10:41:48;102233.82;;;8.69;42.62
59545;BME280;45368;55.002;-1.592;2023-04-02T10:44:27;102233.62;;;7.62;44.20
59545;BME280;45368;55.002;-1.592;2023-04-02T10:47:07;102233.29;;;8.89;42.54
59545;BME280;45368;55.002;-1.592;2023-04-02T10:49:41;102241.22;;;8.68;43.35
59545;BME280;45368;55.002;-1.592;2023-04-02T10:52:17;102241.04;;;8.79;43.71
59545;BME280;45368;55.002;-1.592;2023-04-02T10:54:48;102241.08;;;10.61;41.53
59545;BME280;45368;55.002;-1.592;2023-04-02T10:57:25;102244.25;;;11.54;40.87
59545;BME280;45368;55.002;-1.592;2023-04-02T10:59:56;102249.81;;;10.76;38.86
59545;BME280;45368;55.002;-1.592;2023-04-02T11:02:32;102260.64;;;9.33;40.51
59545;BME280;45368;55.002;-1.592;2023-04-02T11:05:09;102263.46;;;9.03;41.83
59545;BME280;45368;55.002;-1.592;2023-04-02T11:07:47;102253.18;;;11.62;37.76
59545;BME280;45368;55.002;-1.592;2023-04-02T11:10:19;102246.00;;;14.30;34.30
59545;BME280;45368;55.002;-1.592;2023-04-02T11:12:53;102229.70;;;17.99;28.13
59545;BME280;45368;55.002;-1.592;2023-04-02T11:15:22;102235.42;;;17.82;27.42
59545;BME280;45368;55.002;-1.592;2023-04-02T11:17:50;102246.80;;;16.93;28.02
59545;BME280;45368;55.002;-1.592;2023-04-02T11:21:01;102252.71;;;17.56;27.11
59545;BME280;45368;55.002;-1.592;2023-04-02T11:23:32;102251.74;;;19.27;24.73
59545;BME280;45368;55.002;-1.592;2023-04-02T11:26:38;102260.42;;;16.84;26.40
59545;BME280;45368;55.002;-1.592;2023-04-02T11:29:14;102274.59;;;12.07;33.38
59545;BME280;45368;55.002;-1.592;2023-04-02T11:31:45;102275.39;;;12.33;33.84
59545;BME280;45368;55.002;-1.592;2023-04-02T11:34:15;102286.22;;;11.39;35.32
59545;BME280;45368;55.002;-1.592;2023-04-02T11:37:34;102273.22;;;16.96;27.88
59545;BME280;45368;55.002;-1.592;2023-04-02T11:40:05;102277.44;;;14.66;29.88
59545;BME280;45368;55.002;-1.592;2023-04-02T11:42:34;102282.20;;;13.11;32.69
59545;BME280;45368;55.002;-1.592;2023-04-02T11:45:52;102291.10;;;11.94;34.90
59545;BME280;45368;55.002;-1.592;2023-04-02T11:48:29;102291.85;;;13.22;33.83
59545;BME280;45368;55.002;-1.592;2023-04-02T11:50:58;102290.16;;;14.47;31.45
59545;BME280;45368;55.002;-1.592;2023-04-02T11:53:31;102298.15;;;13.41;32.98
59545;BME280;45368;55.002;-1.592;2023-04-02T11:56:14;102303.17;;;11.84;34.86
59545;BME280;45368;55.002;-1.592;2023-04-02T11:58:53;102313.95;;;9.76;38.87
59545;BME280;45368;55.002;-1.592;2023-04-02T12:01:37;102311.75;;;10.46;37.79
59545;BME280;45368;55.002;-1.592;2023-04-02T12:04:44;102308.88;;;10.57;38.21
59545;BME280;45368;55.002;-1.592;2023-04-02T12:07:28;102315.57;;;9.49;39.62
59545;BME280;45368;55.002;-1.592;2023-04-02T12:09:59;102318.89;;;9.07;40.34
59545;BME280;45368;55.002;-1.592;2023-04-02T12:12:35;102319.61;;;8.95;40.81
59545;BME280;45368;55.002;-1.592;2023-04-02T12:15:05;102320.75;;;9.32;40.72
59545;BME280;45368;55.002;-1.592;2023-04-02T12:17:35;102321.43;;;10.79;41.31
59545;BME280;45368;55.002;-1.592;2023-04-02T12:20:17;102318.75;;;10.73;38.06
59545;BME280;45368;55.002;-1.592;2023-04-02T12:22:49;102320.73;;;10.55;37.20
59545;BME280;45368;55.002;-1.592;2023-04-02T12:25:25;102320.84;;;9.95;38.89
59545;BME280;45368;55.002;-1.592;2023-04-02T12:28:04;102326.72;;;9.54;38.88
59545;BME280;45368;55.002;-1.592;2023-04-02T12:30:31;102333.96;;;9.32;40.97
59545;BME280;45368;55.002;-1.592;2023-04-02T12:33:14;102343.82;;;8.15;43.58
59545;BME280;45368;55.002;-1.592;2023-04-02T12:35:43;102343.41;;;9.12;41.14
59545;BME280;45368;55.002;-1.592;2023-04-02T12:38:20;102349.41;;;8.83;42.22
59545;BME280;45368;55.002;-1.592;2023-04-02T12:40:52;102354.02;;;7.83;42.69
59545;BME280;45368;55.002;-1.592;2023-04-02T12:43:25;102353.89;;;7.98;42.42
59545;BME280;45368;55.002;-1.592;2023-04-02T12:45:53;102349.69;;;9.38;41.56
59545;BME280;45368;55.002;-1.592;2023-04-02T12:48:21;102362.51;;;8.72;41.73
59545;BME280;45368;55.002;-1.592;2023-04-02T12:50:49;102361.99;;;8.72;41.36
59545;BME280;45368;55.002;-1.592;2023-04-02T12:53:20;102362.58;;;9.45;40.87
59545;BME280;45368;55.002;-1.592;2023-04-02T12:55:50;102363.80;;;9.46;41.29
59545;BME280;45368;55.002;-1.592;2023-04-02T12:58:26;102365.44;;;8.78;41.28
59545;BME280;45368;55.002;-1.592;2023-04-02T13:01:09;102369.69;;;9.34;39.53
59545;BME280;45368;55.002;-1.592;2023-04-02T13:03:37;102361.64;;;9.71;41.04
59545;BME280;45368;55.002;-1.592;2023-04-02T13:06:19;102362.87;;;10.52;39.54
59545;BME280;45368;55.002;-1.592;2023-04-02T13:08:47;102367.17;;;10.25;39.40
59545;BME280;45368;55.002;-1.592;2023-04-02T13:11:16;102363.76;;;10.03;38.32
59545;BME280;45368;55.002;-1.592;2023-04-02T13:13:45;102369.97;;;8.96;40.58
59545;BME280;45368;55.002;-1.592;2023-04-02T13:16:26;102369.27;;;9.00;40.20
59545;BME280;45368;55.002;-1.592;2023-04-02T13:19:10;102363.12;;;9.25;39.61
59545;BME280;45368;55.002;-1.592;2023-04-02T13:21:38;102367.24;;;8.87;40.38
59545;BME280;45368;55.002;-1.592;2023-04-02T13:24:15;102361.41;;;10.26;38.65
59545;BME280;45368;55.002;-1.592;2023-04-02T13:26:43;102360.53;;;10.10;39.44
59545;BME280;45368;55.002;-1.592;2023-04-02T13:29:19;102360.14;;;9.28;37.98
59545;BME280;45368;55.002;-1.592;2023-04-02T13:31:47;102362.91;;;9.50;39.72
59545;BME280;45368;55.002;-1.592;2023-04-02T13:34:15;102361.44;;;8.12;41.44
59545;BME280;45368;55.002;-1.592;2023-04-02T13:36:42;102359.53;;;9.15;40.17
59545;BME280;45368;55.002;-1.592;2023-04-02T13:39:10;102358.09;;;9.46;39.40